MAPA DE AEROPUERTO

INFORMACIÓN METAR y TAF

METAR FOR LEGR
ADDS - METARS form results

(2219 UTC 31 October 2020)
Data provider http://aviationweather.gov/metar/data/
 
METAR text: LEGR 312200Z AUTO 00000KT CAVOK 13/08 Q1027
Conditions at: LEGR (GRANADA AIRPORT , ES) observed 2200 UTC 31 October 2020
Temperature: 13.0°C (55°F)
Dewpoint: 8.0°C (46°F) [RH = 72%]
Pressure (altimeter): 30.32 inches Hg (1027.0 mb)
Winds: calm
Visibility: 6 or more miles (10+ km)
Ceiling: ceiling and visibility are OK
Clouds: unknown
Weather: no significant weather observed at this time

METAR text: LEGR 312130Z AUTO VRB02KT CAVOK 13/08 Q1026
Conditions at: LEGR (GRANADA AIRPORT , ES) observed 2130 UTC 31 October 2020
Temperature: 13.0°C (55°F)
Dewpoint: 8.0°C (46°F) [RH = 72%]
Pressure (altimeter): 30.30 inches Hg (1026.0 mb)
Winds: variable direction winds at 2 MPH (2 knots; 1.0 m/s)
Visibility: 6 or more miles (10+ km)
Ceiling: ceiling and visibility are OK
Clouds: unknown
Weather: no significant weather observed at this time

Forecast for: LEGR (GRANADA AIRPORT , ES)
Text: TAF LEGR 312000Z 3121/0121 VRB03KT CAVOK TX28/0115Z TN08/0107Z
Forecast period: 2100 UTC 31 October 2020 to 2100 UTC 01 November 2020
Forecast type: FROM: standard forecast or significant change
Winds: variable direction winds at 3 MPH (3 knots; 1.5 m/s)
Visibility: 6 or more miles (10+ km)
Ceiling: unknown
Clouds: missing
Weather: no significant weather forecast for this period
Text: PROB40
Forecast period: 1600 to 1900 UTC 01 November 2020
Forecast type: TEMPORARY: The following changes expected for less than half the time period
Winds: from the W (270 degrees) at 12 MPH (10 knots; 5.1 m/s)
Visibility: missing
Ceiling: unknown
Clouds: missing
Weather: no significant weather forecast for this period